createdAt,value
2018-03-30T00:01:59.216Z,13.30
2018-03-30T00:04:25.905Z,7.80
2018-03-30T00:06:52.579Z,8.40
2018-03-30T00:09:25.084Z,8.10
2018-03-30T00:11:51.786Z,8.90
2018-03-30T00:14:18.448Z,8.47
2018-03-30T00:16:45.163Z,8.77
2018-03-30T00:19:11.935Z,8.20
2018-03-30T00:21:38.586Z,11.43
2018-03-30T00:27:02.597Z,9.07
2018-03-30T00:29:29.310Z,8.90
2018-03-30T00:31:56.175Z,8.07
2018-03-30T00:34:22.912Z,9.43
2018-03-30T00:36:49.602Z,7.77
2018-03-30T00:39:16.477Z,7.30
2018-03-30T00:41:43.159Z,8.10
2018-03-30T00:44:09.826Z,8.87
2018-03-30T00:46:36.568Z,7.43
2018-03-30T00:49:03.209Z,6.87
2018-03-30T00:51:30.012Z,7.80
2018-03-30T00:53:56.733Z,6.93
2018-03-30T00:56:23.620Z,8.07
2018-03-30T00:58:50.302Z,8.07
2018-03-30T01:01:17.080Z,7.83
2018-03-30T01:03:43.849Z,8.13
2018-03-30T01:06:10.704Z,6.97
2018-03-30T01:08:37.306Z,6.70
2018-03-30T01:11:09.804Z,7.10
2018-03-30T01:13:36.468Z,6.90
2018-03-30T01:16:03.175Z,8.80
2018-03-30T01:18:29.916Z,6.43
2018-03-30T01:20:56.738Z,6.43
2018-03-30T01:23:23.330Z,6.17
2018-03-30T01:25:50.005Z,5.60
2018-03-30T01:28:16.608Z,6.90
2018-03-30T01:30:43.329Z,6.77
2018-03-30T01:33:09.943Z,7.20
2018-03-30T01:35:36.658Z,6.87
2018-03-30T01:38:03.265Z,6.90
2018-03-30T01:40:29.928Z,5.47
2018-03-30T01:42:56.542Z,5.90
2018-03-30T01:45:23.184Z,8.70
2018-03-30T01:47:49.781Z,6.80
2018-03-30T01:50:16.401Z,6.27
2018-03-30T01:52:43.012Z,6.40
2018-03-30T01:55:09.617Z,5.97
2018-03-30T01:57:36.243Z,6.50
2018-03-30T02:00:02.831Z,6.50
2018-03-30T02:02:29.452Z,6.00
2018-03-30T02:04:56.047Z,5.80
2018-03-30T02:07:22.683Z,6.70
2018-03-30T02:09:49.255Z,6.33
2018-03-30T02:12:15.852Z,6.17
2018-03-30T02:14:42.439Z,7.43
2018-03-30T02:17:09.067Z,6.30
2018-03-30T02:19:35.732Z,6.93
2018-03-30T02:22:02.346Z,6.43
2018-03-30T02:24:29.029Z,7.20
2018-03-30T02:26:55.660Z,9.43
2018-03-30T02:29:22.253Z,8.13
2018-03-30T02:31:48.855Z,6.70
2018-03-30T02:34:15.445Z,10.43
2018-03-30T02:36:42.107Z,7.03
2018-03-30T02:39:08.769Z,6.80
2018-03-30T02:41:35.376Z,8.50
2018-03-30T02:44:02.037Z,7.57
2018-03-30T02:46:28.639Z,6.77
2018-03-30T02:48:55.245Z,7.00
2018-03-30T02:51:21.851Z,8.00
2018-03-30T02:53:48.481Z,7.97
2018-03-30T02:56:15.065Z,6.60
2018-03-30T02:58:41.659Z,6.80
2018-03-30T03:01:08.433Z,7.27
2018-03-30T03:03:35.073Z,7.90
2018-03-30T03:06:01.688Z,6.90
2018-03-30T03:08:28.423Z,7.00
2018-03-30T03:10:55.023Z,6.93
2018-03-30T03:13:21.651Z,6.77
2018-03-30T03:15:48.541Z,11.80
2018-03-30T03:18:15.145Z,6.50
2018-03-30T03:20:41.733Z,6.83
2018-03-30T03:23:08.320Z,6.73
2018-03-30T03:25:34.983Z,7.40
2018-03-30T03:28:01.840Z,6.40
2018-03-30T03:30:28.447Z,7.13
2018-03-30T03:32:55.059Z,5.93
2018-03-30T03:35:21.709Z,6.30
2018-03-30T03:37:48.316Z,6.83
2018-03-30T03:40:14.931Z,6.00
2018-03-30T03:42:41.515Z,6.90
2018-03-30T03:45:10.134Z,7.83
2018-03-30T03:47:37.215Z,6.47
2018-03-30T03:50:03.837Z,6.50
2018-03-30T03:52:30.489Z,6.57
2018-03-30T03:54:57.111Z,10.20
2018-03-30T03:57:23.690Z,6.33
2018-03-30T03:59:50.341Z,6.30
2018-03-30T04:02:16.952Z,7.20
2018-03-30T04:04:43.568Z,6.50
2018-03-30T04:07:10.192Z,6.70
2018-03-30T04:09:36.961Z,6.37
2018-03-30T04:12:03.576Z,6.37
2018-03-30T04:14:30.163Z,7.23
2018-03-30T04:16:56.798Z,6.50
2018-03-30T04:19:23.390Z,8.87
2018-03-30T04:21:50.017Z,8.50
2018-03-30T04:24:16.605Z,6.70
2018-03-30T04:26:43.229Z,6.97
2018-03-30T04:29:09.874Z,7.30
2018-03-30T04:31:36.470Z,6.13
2018-03-30T04:34:03.163Z,6.23
2018-03-30T04:36:29.775Z,6.80
2018-03-30T04:38:56.384Z,6.27
2018-03-30T04:41:22.995Z,6.50
2018-03-30T04:43:49.604Z,6.53
2018-03-30T04:46:16.186Z,7.60
2018-03-30T04:48:42.856Z,6.13
2018-03-30T04:51:09.463Z,7.80
2018-03-30T04:53:36.100Z,7.93
2018-03-30T04:56:02.685Z,8.27
2018-03-30T04:58:29.317Z,10.63
2018-03-30T05:00:56.066Z,8.33
2018-03-30T05:03:22.785Z,7.83
2018-03-30T05:05:49.418Z,13.73
2018-03-30T05:08:16.061Z,6.57
2018-03-30T05:10:42.671Z,6.23
2018-03-30T05:13:09.244Z,5.67
2018-03-30T05:15:35.872Z,6.10
2018-03-30T05:18:02.469Z,6.67
2018-03-30T05:20:29.104Z,6.27
2018-03-30T05:22:55.698Z,9.90
2018-03-30T05:25:22.301Z,8.47
2018-03-30T05:27:48.903Z,6.20
2018-03-30T05:30:15.492Z,6.10
2018-03-30T05:32:42.148Z,5.07
2018-03-30T05:35:08.778Z,5.50
2018-03-30T05:37:35.368Z,6.30
2018-03-30T05:40:01.973Z,6.77
2018-03-30T05:42:28.552Z,6.30
2018-03-30T05:44:55.175Z,5.83
2018-03-30T05:47:21.801Z,6.30
2018-03-30T05:49:48.404Z,6.10
2018-03-30T05:52:14.991Z,7.03
2018-03-30T05:54:41.593Z,6.20
2018-03-30T05:57:08.223Z,6.63
2018-03-30T05:59:34.804Z,6.07
2018-03-30T06:02:01.427Z,6.00
2018-03-30T06:04:28.110Z,5.60
2018-03-30T06:06:54.706Z,9.13
2018-03-30T06:09:21.373Z,5.13
2018-03-30T06:11:47.988Z,5.40
2018-03-30T06:14:14.599Z,5.50
2018-03-30T06:16:41.251Z,5.00
2018-03-30T06:19:07.875Z,5.50
2018-03-30T06:21:34.513Z,5.17
2018-03-30T06:24:01.104Z,5.90
2018-03-30T06:26:27.714Z,5.50
2018-03-30T06:28:54.430Z,5.10
2018-03-30T06:31:20.971Z,5.70
2018-03-30T06:33:47.606Z,5.83
2018-03-30T06:36:14.310Z,5.33
2018-03-30T06:38:40.907Z,5.40
2018-03-30T06:41:07.499Z,5.20
2018-03-30T06:43:34.119Z,6.27
2018-03-30T06:46:00.710Z,6.30
2018-03-30T06:48:27.325Z,8.40
2018-03-30T06:50:53.911Z,6.63
2018-03-30T06:53:20.568Z,6.47
2018-03-30T06:55:47.147Z,7.67
2018-03-30T06:58:13.784Z,6.77
2018-03-30T07:00:40.431Z,6.83
2018-03-30T07:03:07.023Z,7.83
2018-03-30T07:05:33.643Z,7.20
2018-03-30T07:08:00.276Z,7.63
2018-03-30T07:10:26.872Z,7.23
2018-03-30T07:12:53.495Z,7.17
2018-03-30T07:15:20.170Z,6.87
2018-03-30T07:17:46.756Z,8.60
2018-03-30T07:20:13.385Z,7.80
2018-03-30T07:22:40.082Z,8.17
2018-03-30T07:25:06.682Z,7.97
2018-03-30T07:27:33.320Z,7.23
2018-03-30T07:29:59.918Z,7.60
2018-03-30T07:32:26.503Z,7.47
2018-03-30T07:34:53.140Z,8.53
2018-03-30T07:37:19.803Z,8.23
2018-03-30T07:39:46.417Z,7.97
2018-03-30T07:42:13.027Z,10.07
2018-03-30T07:44:39.678Z,10.00
2018-03-30T07:47:06.319Z,9.90
2018-03-30T07:49:32.929Z,9.53
2018-03-30T07:51:59.709Z,10.53
2018-03-30T07:54:26.600Z,10.10
2018-03-30T07:56:53.229Z,13.47
2018-03-30T07:59:19.867Z,8.80
2018-03-30T08:01:46.477Z,9.27
2018-03-30T08:04:13.093Z,8.77
2018-03-30T08:06:39.833Z,9.27
2018-03-30T08:09:06.461Z,10.70
2018-03-30T08:11:33.028Z,11.50
2018-03-30T08:13:59.660Z,8.60
2018-03-30T08:16:26.263Z,10.50
2018-03-30T08:18:52.894Z,8.70
2018-03-30T08:21:19.543Z,9.60
2018-03-30T08:23:46.142Z,11.50
2018-03-30T08:26:12.756Z,10.17
2018-03-30T08:28:39.375Z,8.90
2018-03-30T08:31:06.004Z,11.90
2018-03-30T08:33:32.679Z,10.33
2018-03-30T08:35:59.283Z,10.40
2018-03-30T08:38:25.942Z,10.60
2018-03-30T08:40:52.588Z,10.23
2018-03-30T08:43:19.201Z,9.63
2018-03-30T08:45:45.816Z,9.70
2018-03-30T08:48:12.469Z,9.90
2018-03-30T08:50:39.106Z,10.10
2018-03-30T08:53:05.722Z,10.67
2018-03-30T08:55:32.320Z,11.47
2018-03-30T08:57:58.984Z,11.73
2018-03-30T09:00:25.795Z,12.17
2018-03-30T09:02:52.414Z,12.43
2018-03-30T09:05:19.039Z,12.07
2018-03-30T09:07:45.685Z,11.30
2018-03-30T09:10:12.328Z,12.47
2018-03-30T09:12:38.930Z,10.87
2018-03-30T09:15:05.632Z,11.60
2018-03-30T09:17:32.238Z,11.33
2018-03-30T09:19:58.940Z,12.00
2018-03-30T09:22:25.596Z,11.03
2018-03-30T09:24:52.160Z,11.03
2018-03-30T09:27:18.792Z,11.97
2018-03-30T09:29:51.255Z,11.07
2018-03-30T09:32:17.892Z,10.67
2018-03-30T09:34:44.539Z,12.40
2018-03-30T09:37:11.161Z,10.63
2018-03-30T09:39:37.921Z,11.97
2018-03-30T09:42:04.531Z,10.90
2018-03-30T09:44:31.104Z,10.57
2018-03-30T09:46:57.781Z,10.60
2018-03-30T09:49:24.373Z,11.27
2018-03-30T09:51:51.006Z,11.17
2018-03-30T09:54:17.592Z,13.20
2018-03-30T09:56:44.282Z,16.10
2018-03-30T09:59:10.976Z,11.13
2018-03-30T10:01:37.584Z,10.27
2018-03-30T10:04:04.218Z,10.53
2018-03-30T10:06:30.941Z,9.17
2018-03-30T10:08:57.619Z,9.07
2018-03-30T10:11:24.277Z,9.80
2018-03-30T10:13:50.892Z,9.07
2018-03-30T10:16:17.536Z,9.77
2018-03-30T10:18:44.173Z,8.17
2018-03-30T10:21:10.793Z,7.37
2018-03-30T10:23:37.482Z,7.77
2018-03-30T10:26:04.200Z,7.20
2018-03-30T10:28:32.153Z,10.90
2018-03-30T10:33:44.812Z,6.27
2018-03-30T10:36:11.591Z,5.60
2018-03-30T10:38:38.184Z,5.23
2018-03-30T10:41:05.199Z,5.67
2018-03-30T10:43:31.832Z,6.60
2018-03-30T10:45:58.428Z,7.43
2018-03-30T10:48:25.044Z,5.00
2018-03-30T10:50:51.644Z,4.80
2018-03-30T10:53:18.285Z,7.13
2018-03-30T10:55:44.937Z,5.10
2018-03-30T10:58:11.607Z,4.37
2018-03-30T11:00:38.229Z,4.53
2018-03-30T11:03:04.847Z,3.87
2018-03-30T11:05:31.499Z,3.97
2018-03-30T11:07:58.129Z,3.83
2018-03-30T11:10:24.876Z,4.20
2018-03-30T11:12:51.473Z,4.40
2018-03-30T11:15:18.100Z,3.80
2018-03-30T11:17:44.689Z,3.90
2018-03-30T11:20:11.321Z,4.53
2018-03-30T11:22:37.959Z,4.30
2018-03-30T11:25:04.678Z,4.27
2018-03-30T11:27:31.288Z,3.53
2018-03-30T11:29:57.908Z,3.00
2018-03-30T11:32:24.568Z,3.93
2018-03-30T11:34:51.255Z,3.60
2018-03-30T11:37:17.877Z,3.63
2018-03-30T11:39:44.527Z,3.83
2018-03-30T11:42:11.117Z,3.20
2018-03-30T11:44:37.818Z,3.30
2018-03-30T11:47:04.663Z,4.03
2018-03-30T11:49:31.254Z,3.00
2018-03-30T11:51:57.893Z,6.07
2018-03-30T11:54:24.549Z,2.67
2018-03-30T11:56:51.193Z,3.20
2018-03-30T11:59:17.872Z,2.57
2018-03-30T12:01:44.714Z,2.87
2018-03-30T12:04:11.338Z,2.80
2018-03-30T12:06:39.085Z,2.67
2018-03-30T12:09:05.714Z,3.73
2018-03-30T12:11:33.289Z,2.40
2018-03-30T12:13:59.900Z,3.13
2018-03-30T12:16:27.470Z,4.03
2018-03-30T12:18:54.127Z,3.97
2018-03-30T12:21:20.770Z,2.97
2018-03-30T12:23:47.459Z,3.13
2018-03-30T12:26:14.045Z,3.77
2018-03-30T12:28:40.668Z,3.97
2018-03-30T12:31:07.331Z,4.27
2018-03-30T12:33:33.989Z,6.17
2018-03-30T12:36:00.656Z,4.70
2018-03-30T12:38:27.440Z,4.17
2018-03-30T12:40:54.025Z,6.53
2018-03-30T12:43:20.667Z,5.10
2018-03-30T12:45:47.359Z,5.50
2018-03-30T12:48:13.967Z,4.57
2018-03-30T12:50:40.577Z,3.87
2018-03-30T12:53:07.214Z,4.97
2018-03-30T12:55:33.905Z,5.67
2018-03-30T12:58:00.598Z,4.93
2018-03-30T13:00:27.738Z,4.77
2018-03-30T13:02:54.404Z,5.93
2018-03-30T13:05:21.056Z,5.43
2018-03-30T13:07:47.694Z,5.53
2018-03-30T13:10:14.312Z,5.70
2018-03-30T13:12:40.911Z,5.87
2018-03-30T13:15:07.549Z,6.07
2018-03-30T13:17:34.573Z,6.03
2018-03-30T13:20:01.171Z,6.30
2018-03-30T13:22:27.754Z,6.73
2018-03-30T13:24:54.432Z,6.50
2018-03-30T13:27:21.027Z,6.93
2018-03-30T13:29:47.656Z,7.00
2018-03-30T13:32:14.305Z,6.83
2018-03-30T13:34:40.947Z,7.40
2018-03-30T13:37:07.509Z,7.73
2018-03-30T13:39:34.125Z,6.90
2018-03-30T13:42:00.785Z,7.83
2018-03-30T13:44:27.401Z,7.97
2018-03-30T13:46:54.040Z,7.63
2018-03-30T13:49:20.649Z,7.00
2018-03-30T13:51:51.984Z,7.90
2018-03-30T13:54:18.576Z,6.50
2018-03-30T13:56:45.199Z,7.73
2018-03-30T13:59:23.516Z,8.27
2018-03-30T14:01:58.906Z,7.60
2018-03-30T14:04:26.360Z,7.50
2018-03-30T14:06:54.767Z,7.50
2018-03-30T14:09:22.288Z,7.20
2018-03-30T14:11:48.926Z,7.47
2018-03-30T14:14:15.524Z,7.07
2018-03-30T14:16:43.963Z,7.70
2018-03-30T14:19:17.236Z,7.53
2018-03-30T14:21:53.793Z,7.33
2018-03-30T14:24:21.083Z,8.43
2018-03-30T14:26:59.637Z,8.00
2018-03-30T14:29:30.105Z,10.30
2018-03-30T14:32:06.639Z,8.43
2018-03-30T14:34:34.974Z,8.17
2018-03-30T14:37:07.443Z,7.80
2018-03-30T14:39:37.911Z,7.93
2018-03-30T14:42:08.346Z,11.23
2018-03-30T14:44:35.776Z,7.50
2018-03-30T14:47:08.048Z,7.63
2018-03-30T14:49:35.612Z,7.53
2018-03-30T14:52:18.055Z,6.97
2018-03-30T14:54:44.675Z,4.40
2018-03-30T14:57:17.048Z,6.63
2018-03-30T14:59:44.573Z,4.50
2018-03-30T15:02:16.037Z,6.37
2018-03-30T15:04:49.495Z,4.57
2018-03-30T15:07:16.361Z,6.17
2018-03-30T15:09:55.687Z,4.80
2018-03-30T15:12:26.209Z,4.60
2018-03-30T15:14:54.055Z,6.23
2018-03-30T15:17:20.639Z,5.70
2018-03-30T15:19:47.268Z,5.43
2018-03-30T15:22:14.748Z,5.20
2018-03-30T15:24:42.093Z,4.97
2018-03-30T15:27:11.670Z,5.80
2018-03-30T15:29:38.280Z,4.63
2018-03-30T15:32:06.052Z,3.67
2018-03-30T15:34:34.580Z,4.73
2018-03-30T15:37:04.097Z,5.47
2018-03-30T15:39:30.692Z,5.00
2018-03-30T15:41:58.137Z,4.13
2018-03-30T15:44:25.428Z,3.50
2018-03-30T15:46:52.077Z,4.37
2018-03-30T15:49:18.723Z,5.00
2018-03-30T15:51:48.155Z,4.37
2018-03-30T15:54:14.513Z,3.17
2018-03-30T15:56:41.153Z,4.20
2018-03-30T15:59:07.874Z,5.33
2018-03-30T16:01:34.471Z,5.97
2018-03-30T16:04:01.060Z,4.07
2018-03-30T16:06:27.743Z,4.40
2018-03-30T16:08:54.389Z,4.03
2018-03-30T16:11:21.016Z,4.00
2018-03-30T16:13:47.713Z,4.00
2018-03-30T16:16:14.345Z,3.07
2018-03-30T16:18:46.946Z,2.70
2018-03-30T16:21:13.432Z,3.03
2018-03-30T16:23:39.921Z,3.30
2018-03-30T16:26:06.392Z,2.97
2018-03-30T16:28:32.891Z,7.17
2018-03-30T16:30:59.431Z,2.67
2018-03-30T16:33:26.631Z,2.47
2018-03-30T16:35:53.143Z,3.73
2018-03-30T16:38:19.682Z,11.80
2018-03-30T16:40:46.218Z,3.20
2018-03-30T16:43:14.635Z,3.37
2018-03-30T16:45:41.093Z,4.57
2018-03-30T16:48:07.517Z,3.53
2018-03-30T16:50:35.006Z,2.93
2018-03-30T16:53:01.525Z,3.60
2018-03-30T16:55:28.108Z,3.03
2018-03-30T16:57:54.500Z,3.10
2018-03-30T17:00:21.037Z,3.50
2018-03-30T17:02:47.594Z,3.27
2018-03-30T17:05:14.120Z,3.53
2018-03-30T17:07:40.547Z,3.23
2018-03-30T17:10:07.020Z,3.37
2018-03-30T17:12:33.436Z,2.87
2018-03-30T17:15:00.019Z,3.50
2018-03-30T17:17:26.473Z,3.90
2018-03-30T17:19:52.846Z,7.80
2018-03-30T17:22:19.238Z,7.40
2018-03-30T17:24:45.606Z,4.50
2018-03-30T17:27:12.008Z,3.27
2018-03-30T17:29:38.369Z,5.93
2018-03-30T17:32:04.815Z,4.30
2018-03-30T17:34:31.206Z,4.07
2018-03-30T17:36:57.666Z,3.43
2018-03-30T17:39:24.048Z,4.63
2018-03-30T17:41:50.436Z,7.50
2018-03-30T17:44:16.807Z,5.30
2018-03-30T17:46:43.199Z,5.03
2018-03-30T17:49:09.553Z,4.97
2018-03-30T17:51:36.032Z,4.93
2018-03-30T17:54:02.450Z,4.10
2018-03-30T17:56:28.921Z,6.97
2018-03-30T17:58:55.412Z,4.10
2018-03-30T18:01:21.772Z,4.33
2018-03-30T18:03:48.200Z,4.80
2018-03-30T18:06:14.745Z,5.00
2018-03-30T18:08:41.384Z,5.63
2018-03-30T18:11:07.859Z,3.20
2018-03-30T18:13:40.547Z,7.33
2018-03-30T18:16:06.972Z,4.43
2018-03-30T18:18:33.456Z,5.47
2018-03-30T18:21:00.469Z,6.23
2018-03-30T18:23:26.934Z,7.37
2018-03-30T18:25:53.366Z,5.63
2018-03-30T18:28:19.855Z,6.93
2018-03-30T18:30:46.386Z,5.53
2018-03-30T18:33:12.798Z,5.70
2018-03-30T18:35:39.198Z,5.27
2018-03-30T18:38:05.665Z,5.20
2018-03-30T18:40:32.027Z,5.97
2018-03-30T18:42:58.913Z,6.70
2018-03-30T18:45:25.338Z,5.33
2018-03-30T18:47:51.710Z,7.80
2018-03-30T18:50:18.152Z,4.87
2018-03-30T18:52:44.794Z,4.93
2018-03-30T18:55:11.219Z,6.83
2018-03-30T18:57:37.585Z,5.50
2018-03-30T19:00:03.962Z,6.80
2018-03-30T19:02:30.376Z,6.27
2018-03-30T19:04:56.795Z,9.40
2018-03-30T19:07:23.164Z,6.13
2018-03-30T19:09:49.537Z,6.37
2018-03-30T19:12:15.948Z,5.80
2018-03-30T19:14:42.339Z,5.47
2018-03-30T19:17:08.782Z,6.50
2018-03-30T19:19:35.149Z,9.20
2018-03-30T19:22:01.544Z,12.47
2018-03-30T19:24:27.908Z,8.63
2018-03-30T19:26:54.392Z,9.30
2018-03-30T19:29:20.789Z,13.67
2018-03-30T19:31:47.304Z,7.03
2018-03-30T19:34:13.742Z,7.87
2018-03-30T19:36:40.195Z,5.70
2018-03-30T19:39:06.563Z,4.87
2018-03-30T19:41:33.004Z,6.40
2018-03-30T19:43:59.394Z,5.30
2018-03-30T19:46:25.859Z,4.87
2018-03-30T19:48:52.269Z,3.67
2018-03-30T19:51:18.676Z,4.57
2018-03-30T19:53:45.148Z,4.10
2018-03-30T19:56:11.557Z,5.17
2018-03-30T19:58:37.914Z,5.07
2018-03-30T20:01:04.283Z,5.07
2018-03-30T20:03:30.886Z,3.67
2018-03-30T20:05:57.236Z,3.97
2018-03-30T20:08:23.669Z,3.50
2018-03-30T20:10:50.180Z,3.53
2018-03-30T20:13:16.660Z,3.87
2018-03-30T20:15:43.078Z,4.20
2018-03-30T20:18:09.472Z,3.30
2018-03-30T20:20:35.873Z,3.17
2018-03-30T20:23:02.280Z,3.07
2018-03-30T20:25:28.692Z,4.03
2018-03-30T20:27:55.119Z,4.97
2018-03-30T20:30:21.513Z,3.13
2018-03-30T20:32:47.905Z,3.30
2018-03-30T20:35:14.294Z,3.57
2018-03-30T20:37:40.676Z,3.63
2018-03-30T20:40:07.146Z,3.87
2018-03-30T20:42:33.542Z,3.60
2018-03-30T20:44:59.948Z,3.47
2018-03-30T20:47:26.701Z,3.47
2018-03-30T20:49:53.145Z,4.00
2018-03-30T20:52:19.994Z,4.07
2018-03-30T20:54:46.393Z,3.60
2018-03-30T20:57:12.812Z,3.23
2018-03-30T20:59:39.401Z,3.63
2018-03-30T21:02:05.753Z,3.80
2018-03-30T21:04:32.159Z,3.50
2018-03-30T21:09:38.093Z,3.67
2018-03-30T21:12:04.594Z,4.20
2018-03-30T21:14:31.037Z,2.00
2018-03-30T21:16:57.494Z,2.60
2018-03-30T21:19:23.857Z,2.70
2018-03-30T21:21:50.377Z,2.13
2018-03-30T21:24:16.821Z,2.17
2018-03-30T21:26:43.392Z,2.83
2018-03-30T21:29:09.897Z,2.50
2018-03-30T21:31:36.324Z,4.17
2018-03-30T21:34:02.737Z,1.63
2018-03-30T21:36:29.797Z,2.23
2018-03-30T21:38:56.891Z,1.17
2018-03-30T21:41:23.289Z,1.30
2018-03-30T21:43:49.670Z,1.50
2018-03-30T21:46:16.117Z,1.80
2018-03-30T21:48:42.541Z,1.67
2018-03-30T21:51:09.257Z,3.10
2018-03-30T21:53:36.262Z,2.40
2018-03-30T21:56:02.896Z,1.30
2018-03-30T21:58:29.466Z,1.97
2018-03-30T22:00:55.901Z,1.60
2018-03-30T22:03:22.368Z,1.50
2018-03-30T22:05:48.752Z,5.43
2018-03-30T22:08:15.195Z,1.83
2018-03-30T22:10:41.676Z,2.73
2018-03-30T22:13:08.271Z,1.63
2018-03-30T22:15:34.795Z,5.73
2018-03-30T22:18:01.443Z,1.10
2018-03-30T22:20:28.021Z,2.27
2018-03-30T22:22:54.503Z,1.83
2018-03-30T22:25:20.905Z,1.93
2018-03-30T22:27:47.521Z,1.60
2018-03-30T22:30:13.881Z,2.13
2018-03-30T22:32:40.479Z,2.20
2018-03-30T22:35:06.862Z,2.00
2018-03-30T22:37:33.257Z,1.73
2018-03-30T22:39:59.612Z,1.80
2018-03-30T22:42:25.985Z,1.97
2018-03-30T22:44:52.352Z,1.60
2018-03-30T22:47:18.703Z,2.30
2018-03-30T22:49:45.149Z,2.00
2018-03-30T22:52:11.518Z,1.70
2018-03-30T22:54:37.878Z,1.77
2018-03-30T22:57:04.270Z,2.10
2018-03-30T22:59:30.628Z,2.27
2018-03-30T23:01:56.988Z,2.20
2018-03-30T23:04:23.379Z,1.80
2018-03-30T23:06:49.767Z,2.37
2018-03-30T23:09:25.724Z,2.70
2018-03-30T23:12:04.590Z,1.73
2018-03-30T23:14:31.080Z,2.03
2018-03-30T23:16:57.465Z,1.77
2018-03-30T23:19:23.840Z,2.03
2018-03-30T23:21:50.257Z,2.23
2018-03-30T23:24:16.610Z,2.37
2018-03-30T23:26:43.016Z,2.40
2018-03-30T23:29:09.411Z,2.97
2018-03-30T23:31:35.790Z,2.80
2018-03-30T23:34:02.150Z,2.60
2018-03-30T23:36:28.570Z,3.60
2018-03-30T23:38:54.920Z,2.67
2018-03-30T23:41:21.376Z,3.77
2018-03-30T23:43:47.864Z,2.97
2018-03-30T23:46:14.333Z,2.93
2018-03-30T23:48:40.797Z,3.00
2018-03-30T23:51:07.229Z,3.47
2018-03-30T23:53:34.113Z,3.80
2018-03-30T23:56:00.519Z,3.77
2018-03-30T23:58:26.997Z,4.20
